sensor_id;sensor_type;location;lat;lon;timestamp;P1;durP1;ratioP1;P2;durP2;ratioP2
62419;SDS011;48460;51.616;5.426;2022-08-03T00:02:07;13.57;;;4.40;;
62419;SDS011;48460;51.616;5.426;2022-08-03T00:04:32;13.20;;;4.57;;
62419;SDS011;48460;51.616;5.426;2022-08-03T00:06:58;10.73;;;3.92;;
62419;SDS011;48460;51.616;5.426;2022-08-03T00:09:23;10.63;;;4.03;;
62419;SDS011;48460;51.616;5.426;2022-08-03T00:11:48;14.48;;;4.45;;
62419;SDS011;48460;51.616;5.426;2022-08-03T00:14:14;15.25;;;4.10;;
62419;SDS011;48460;51.616;5.426;2022-08-03T00:16:39;11.40;;;4.15;;
62419;SDS011;48460;51.616;5.426;2022-08-03T00:19:05;9.27;;;4.18;;
62419;SDS011;48460;51.616;5.426;2022-08-03T00:21:30;12.85;;;4.70;;
62419;SDS011;48460;51.616;5.426;2022-08-03T00:23:56;11.55;;;4.30;;
62419;SDS011;48460;51.616;5.426;2022-08-03T00:26:23;13.20;;;4.38;;
62419;SDS011;48460;51.616;5.426;2022-08-03T00:28:49;13.80;;;4.78;;
62419;SDS011;48460;51.616;5.426;2022-08-03T00:31:28;11.82;;;4.55;;
62419;SDS011;48460;51.616;5.426;2022-08-03T00:33:53;10.82;;;3.92;;
62419;SDS011;48460;51.616;5.426;2022-08-03T00:36:24;12.70;;;4.65;;
62419;SDS011;48460;51.616;5.426;2022-08-03T00:38:50;13.48;;;5.03;;
62419;SDS011;48460;51.616;5.426;2022-08-03T00:41:21;12.73;;;4.45;;
62419;SDS011;48460;51.616;5.426;2022-08-03T00:43:52;11.85;;;4.38;;
62419;SDS011;48460;51.616;5.426;2022-08-03T00:46:17;18.65;;;4.53;;
62419;SDS011;48460;51.616;5.426;2022-08-03T00:48:44;12.05;;;4.63;;
62419;SDS011;48460;51.616;5.426;2022-08-03T00:51:15;12.25;;;4.85;;
62419;SDS011;48460;51.616;5.426;2022-08-03T00:53:40;16.77;;;4.97;;
62419;SDS011;48460;51.616;5.426;2022-08-03T00:56:11;12.45;;;5.03;;
62419;SDS011;48460;51.616;5.426;2022-08-03T00:58:38;12.88;;;4.90;;
62419;SDS011;48460;51.616;5.426;2022-08-03T01:01:06;12.50;;;4.70;;
62419;SDS011;48460;51.616;5.426;2022-08-03T01:03:32;11.98;;;5.00;;
62419;SDS011;48460;51.616;5.426;2022-08-03T01:11:42;12.35;;;4.75;;
62419;SDS011;48460;51.616;5.426;2022-08-03T01:14:17;13.75;;;4.68;;
62419;SDS011;48460;51.616;5.426;2022-08-03T01:16:56;11.95;;;5.15;;
62419;SDS011;48460;51.616;5.426;2022-08-03T01:27:29;18.73;;;4.88;;
62419;SDS011;48460;51.616;5.426;2022-08-03T01:30:07;12.20;;;5.10;;
62419;SDS011;48460;51.616;5.426;2022-08-03T01:32:36;15.43;;;5.38;;
62419;SDS011;48460;51.616;5.426;2022-08-03T01:35:13;13.85;;;4.80;;
62419;SDS011;48460;51.616;5.426;2022-08-03T01:37:55;14.73;;;4.78;;
62419;SDS011;48460;51.616;5.426;2022-08-03T01:40:25;14.02;;;5.07;;
62419;SDS011;48460;51.616;5.426;2022-08-03T01:42:53;14.10;;;5.13;;
62419;SDS011;48460;51.616;5.426;2022-08-03T01:45:21;12.70;;;5.03;;
62419;SDS011;48460;51.616;5.426;2022-08-03T01:47:51;13.00;;;4.90;;
62419;SDS011;48460;51.616;5.426;2022-08-03T01:50:20;15.60;;;4.95;;
62419;SDS011;48460;51.616;5.426;2022-08-03T01:52:48;13.45;;;5.10;;
62419;SDS011;48460;51.616;5.426;2022-08-03T01:55:16;12.23;;;5.13;;
62419;SDS011;48460;51.616;5.426;2022-08-03T01:57:44;12.52;;;4.65;;
62419;SDS011;48460;51.616;5.426;2022-08-03T02:00:15;15.07;;;4.60;;
62419;SDS011;48460;51.616;5.426;2022-08-03T02:02:41;10.70;;;4.57;;
62419;SDS011;48460;51.616;5.426;2022-08-03T02:05:08;10.85;;;4.85;;
62419;SDS011;48460;51.616;5.426;2022-08-03T02:07:36;14.95;;;5.22;;
62419;SDS011;48460;51.616;5.426;2022-08-03T02:10:07;15.75;;;5.30;;
62419;SDS011;48460;51.616;5.426;2022-08-03T02:12:39;9.38;;;4.75;;
62419;SDS011;48460;51.616;5.426;2022-08-03T02:15:07;10.90;;;4.55;;
62419;SDS011;48460;51.616;5.426;2022-08-03T02:17:33;21.83;;;5.07;;
62419;SDS011;48460;51.616;5.426;2022-08-03T02:20:00;8.32;;;4.80;;
62419;SDS011;48460;51.616;5.426;2022-08-03T02:22:28;14.07;;;4.93;;
62419;SDS011;48460;51.616;5.426;2022-08-03T02:24:55;14.95;;;5.40;;
62419;SDS011;48460;51.616;5.426;2022-08-03T02:27:22;12.57;;;4.82;;
62419;SDS011;48460;51.616;5.426;2022-08-03T02:29:51;13.25;;;4.88;;
62419;SDS011;48460;51.616;5.426;2022-08-03T02:32:24;16.17;;;5.22;;
62419;SDS011;48460;51.616;5.426;2022-08-03T02:34:55;15.55;;;5.28;;
62419;SDS011;48460;51.616;5.426;2022-08-03T02:37:24;13.30;;;4.47;;
62419;SDS011;48460;51.616;5.426;2022-08-03T02:39:54;15.80;;;4.80;;
62419;SDS011;48460;51.616;5.426;2022-08-03T02:42:25;15.18;;;4.78;;
62419;SDS011;48460;51.616;5.426;2022-08-03T02:44:55;12.48;;;4.75;;
62419;SDS011;48460;51.616;5.426;2022-08-03T02:47:26;13.20;;;4.65;;
62419;SDS011;48460;51.616;5.426;2022-08-03T02:49:53;11.15;;;4.75;;
62419;SDS011;48460;51.616;5.426;2022-08-03T02:52:23;12.30;;;4.60;;
62419;SDS011;48460;51.616;5.426;2022-08-03T02:54:52;10.88;;;4.70;;
62419;SDS011;48460;51.616;5.426;2022-08-03T02:57:20;14.73;;;4.93;;
62419;SDS011;48460;51.616;5.426;2022-08-03T02:59:47;13.77;;;5.03;;
62419;SDS011;48460;51.616;5.426;2022-08-03T03:02:14;14.38;;;5.72;;
62419;SDS011;48460;51.616;5.426;2022-08-03T03:04:42;12.15;;;5.30;;
62419;SDS011;48460;51.616;5.426;2022-08-03T03:07:10;14.18;;;5.07;;
62419;SDS011;48460;51.616;5.426;2022-08-03T03:09:39;13.97;;;5.43;;
62419;SDS011;48460;51.616;5.426;2022-08-03T03:12:06;14.88;;;5.32;;
62419;SDS011;48460;51.616;5.426;2022-08-03T03:14:34;12.85;;;5.30;;
62419;SDS011;48460;51.616;5.426;2022-08-03T03:17:01;11.73;;;5.38;;
62419;SDS011;48460;51.616;5.426;2022-08-03T03:19:28;12.07;;;5.28;;
62419;SDS011;48460;51.616;5.426;2022-08-03T03:22:01;14.45;;;5.45;;
62419;SDS011;48460;51.616;5.426;2022-08-03T03:24:31;15.73;;;5.35;;
62419;SDS011;48460;51.616;5.426;2022-08-03T03:26:58;20.95;;;5.70;;
62419;SDS011;48460;51.616;5.426;2022-08-03T03:29:24;19.65;;;5.70;;
62419;SDS011;48460;51.616;5.426;2022-08-03T03:31:50;18.30;;;6.05;;
62419;SDS011;48460;51.616;5.426;2022-08-03T03:34:18;15.45;;;5.72;;
62419;SDS011;48460;51.616;5.426;2022-08-03T03:36:44;15.35;;;5.35;;
62419;SDS011;48460;51.616;5.426;2022-08-03T03:39:10;15.52;;;6.18;;
62419;SDS011;48460;51.616;5.426;2022-08-03T03:41:36;20.92;;;5.85;;
62419;SDS011;48460;51.616;5.426;2022-08-03T03:44:05;13.80;;;5.78;;
62419;SDS011;48460;51.616;5.426;2022-08-03T03:46:33;15.27;;;5.75;;
62419;SDS011;48460;51.616;5.426;2022-08-03T03:49:06;15.87;;;5.30;;
62419;SDS011;48460;51.616;5.426;2022-08-03T03:51:32;23.95;;;5.93;;
62419;SDS011;48460;51.616;5.426;2022-08-03T03:54:02;21.80;;;6.07;;
62419;SDS011;48460;51.616;5.426;2022-08-03T03:56:33;13.50;;;5.30;;
62419;SDS011;48460;51.616;5.426;2022-08-03T03:58:59;18.50;;;5.85;;
62419;SDS011;48460;51.616;5.426;2022-08-03T04:01:24;18.48;;;6.15;;
62419;SDS011;48460;51.616;5.426;2022-08-03T04:03:52;16.13;;;5.75;;
62419;SDS011;48460;51.616;5.426;2022-08-03T04:06:20;16.75;;;5.72;;
62419;SDS011;48460;51.616;5.426;2022-08-03T04:09:07;16.95;;;6.07;;
62419;SDS011;48460;51.616;5.426;2022-08-03T04:11:53;16.10;;;5.72;;
62419;SDS011;48460;51.616;5.426;2022-08-03T04:14:26;29.05;;;6.15;;
62419;SDS011;48460;51.616;5.426;2022-08-03T04:16:55;17.02;;;5.57;;
62419;SDS011;48460;51.616;5.426;2022-08-03T04:19:27;15.70;;;5.43;;
62419;SDS011;48460;51.616;5.426;2022-08-03T04:22:00;17.90;;;5.70;;
62419;SDS011;48460;51.616;5.426;2022-08-03T04:24:32;17.00;;;5.57;;
62419;SDS011;48460;51.616;5.426;2022-08-03T04:27:05;13.88;;;6.03;;
62419;SDS011;48460;51.616;5.426;2022-08-03T04:29:36;19.65;;;6.20;;
62419;SDS011;48460;51.616;5.426;2022-08-03T04:32:05;12.48;;;5.43;;
62419;SDS011;48460;51.616;5.426;2022-08-03T04:34:32;14.55;;;5.75;;
62419;SDS011;48460;51.616;5.426;2022-08-03T04:37:00;16.15;;;6.35;;
62419;SDS011;48460;51.616;5.426;2022-08-03T04:39:30;19.73;;;6.22;;
62419;SDS011;48460;51.616;5.426;2022-08-03T04:41:57;18.27;;;5.75;;
62419;SDS011;48460;51.616;5.426;2022-08-03T04:44:47;14.35;;;5.80;;
62419;SDS011;48460;51.616;5.426;2022-08-03T04:47:19;19.13;;;6.00;;
62419;SDS011;48460;51.616;5.426;2022-08-03T04:49:45;20.42;;;6.28;;
62419;SDS011;48460;51.616;5.426;2022-08-03T04:52:10;13.82;;;5.75;;
62419;SDS011;48460;51.616;5.426;2022-08-03T04:54:41;17.48;;;6.05;;
62419;SDS011;48460;51.616;5.426;2022-08-03T04:57:08;15.40;;;6.10;;
62419;SDS011;48460;51.616;5.426;2022-08-03T04:59:35;17.15;;;5.90;;
62419;SDS011;48460;51.616;5.426;2022-08-03T05:02:00;14.18;;;5.32;;
62419;SDS011;48460;51.616;5.426;2022-08-03T05:04:25;16.40;;;6.35;;
62419;SDS011;48460;51.616;5.426;2022-08-03T05:06:51;18.25;;;6.15;;
62419;SDS011;48460;51.616;5.426;2022-08-03T05:09:17;15.43;;;6.28;;
62419;SDS011;48460;51.616;5.426;2022-08-03T05:11:42;15.38;;;5.90;;
62419;SDS011;48460;51.616;5.426;2022-08-03T05:14:08;14.40;;;5.70;;
62419;SDS011;48460;51.616;5.426;2022-08-03T05:16:34;16.40;;;6.43;;
62419;SDS011;48460;51.616;5.426;2022-08-03T05:19:00;18.40;;;6.13;;
62419;SDS011;48460;51.616;5.426;2022-08-03T05:21:27;16.70;;;5.60;;
62419;SDS011;48460;51.616;5.426;2022-08-03T05:23:53;15.18;;;6.10;;
62419;SDS011;48460;51.616;5.426;2022-08-03T05:26:18;16.27;;;6.05;;
62419;SDS011;48460;51.616;5.426;2022-08-03T05:28:44;14.70;;;5.85;;
62419;SDS011;48460;51.616;5.426;2022-08-03T05:31:10;16.58;;;5.72;;
62419;SDS011;48460;51.616;5.426;2022-08-03T05:33:38;16.98;;;5.88;;
62419;SDS011;48460;51.616;5.426;2022-08-03T05:36:07;14.23;;;5.83;;
62419;SDS011;48460;51.616;5.426;2022-08-03T05:38:39;18.23;;;5.28;;
62419;SDS011;48460;51.616;5.426;2022-08-03T05:41:04;20.92;;;5.68;;
62419;SDS011;48460;51.616;5.426;2022-08-03T05:43:35;14.50;;;5.25;;
62419;SDS011;48460;51.616;5.426;2022-08-03T05:46:06;12.57;;;5.35;;
62419;SDS011;48460;51.616;5.426;2022-08-03T05:48:39;12.95;;;5.13;;
62419;SDS011;48460;51.616;5.426;2022-08-03T05:51:06;22.27;;;5.50;;
62419;SDS011;48460;51.616;5.426;2022-08-03T05:53:35;16.45;;;4.93;;
62419;SDS011;48460;51.616;5.426;2022-08-03T05:56:02;16.30;;;4.80;;
62419;SDS011;48460;51.616;5.426;2022-08-03T05:58:37;12.98;;;4.57;;
62419;SDS011;48460;51.616;5.426;2022-08-03T06:01:03;16.02;;;4.20;;
62419;SDS011;48460;51.616;5.426;2022-08-03T06:03:44;13.30;;;4.65;;
62419;SDS011;48460;51.616;5.426;2022-08-03T06:06:16;16.20;;;4.28;;
62419;SDS011;48460;51.616;5.426;2022-08-03T06:08:59;12.40;;;3.83;;
62419;SDS011;48460;51.616;5.426;2022-08-03T06:11:36;12.88;;;4.07;;
62419;SDS011;48460;51.616;5.426;2022-08-03T06:14:10;20.27;;;4.05;;
62419;SDS011;48460;51.616;5.426;2022-08-03T06:19:03;16.33;;;4.10;;
62419;SDS011;48460;51.616;5.426;2022-08-03T06:21:49;20.30;;;4.53;;
62419;SDS011;48460;51.616;5.426;2022-08-03T06:24:20;19.00;;;3.63;;
62419;SDS011;48460;51.616;5.426;2022-08-03T06:26:46;22.77;;;4.35;;
62419;SDS011;48460;51.616;5.426;2022-08-03T06:29:19;18.95;;;4.07;;
62419;SDS011;48460;51.616;5.426;2022-08-03T06:31:47;13.25;;;3.78;;
62419;SDS011;48460;51.616;5.426;2022-08-03T06:34:18;15.40;;;4.05;;
62419;SDS011;48460;51.616;5.426;2022-08-03T06:39:35;15.55;;;4.15;;
62419;SDS011;48460;51.616;5.426;2022-08-03T06:44:30;14.02;;;4.30;;
62419;SDS011;48460;51.616;5.426;2022-08-03T06:47:02;15.93;;;3.92;;
62419;SDS011;48460;51.616;5.426;2022-08-03T06:49:33;16.98;;;3.95;;
62419;SDS011;48460;51.616;5.426;2022-08-03T06:52:24;16.42;;;4.05;;
62419;SDS011;48460;51.616;5.426;2022-08-03T06:54:55;13.73;;;4.03;;
62419;SDS011;48460;51.616;5.426;2022-08-03T06:57:20;22.35;;;4.30;;
62419;SDS011;48460;51.616;5.426;2022-08-03T06:59:50;17.27;;;3.97;;
62419;SDS011;48460;51.616;5.426;2022-08-03T07:02:25;13.30;;;4.05;;
62419;SDS011;48460;51.616;5.426;2022-08-03T07:04:53;16.17;;;3.83;;
62419;SDS011;48460;51.616;5.426;2022-08-03T07:07:19;18.20;;;4.10;;
62419;SDS011;48460;51.616;5.426;2022-08-03T07:09:45;19.88;;;4.65;;
62419;SDS011;48460;51.616;5.426;2022-08-03T07:12:13;20.65;;;3.88;;
62419;SDS011;48460;51.616;5.426;2022-08-03T07:14:46;14.38;;;4.15;;
62419;SDS011;48460;51.616;5.426;2022-08-03T07:17:11;19.25;;;4.28;;
62419;SDS011;48460;51.616;5.426;2022-08-03T07:19:39;19.70;;;3.97;;
62419;SDS011;48460;51.616;5.426;2022-08-03T07:22:10;21.27;;;4.57;;
62419;SDS011;48460;51.616;5.426;2022-08-03T07:24:38;19.02;;;4.03;;
62419;SDS011;48460;51.616;5.426;2022-08-03T07:27:03;18.92;;;4.20;;
62419;SDS011;48460;51.616;5.426;2022-08-03T07:29:34;20.67;;;3.88;;
62419;SDS011;48460;51.616;5.426;2022-08-03T07:32:02;21.95;;;4.18;;
62419;SDS011;48460;51.616;5.426;2022-08-03T07:34:28;25.98;;;4.43;;
62419;SDS011;48460;51.616;5.426;2022-08-03T07:36:54;15.70;;;3.72;;
62419;SDS011;48460;51.616;5.426;2022-08-03T07:39:20;19.30;;;3.80;;
62419;SDS011;48460;51.616;5.426;2022-08-03T07:41:56;18.95;;;3.75;;
62419;SDS011;48460;51.616;5.426;2022-08-03T07:44:29;17.77;;;4.25;;
62419;SDS011;48460;51.616;5.426;2022-08-03T07:47:03;18.83;;;3.70;;
62419;SDS011;48460;51.616;5.426;2022-08-03T07:49:29;13.23;;;3.20;;
62419;SDS011;48460;51.616;5.426;2022-08-03T07:51:55;17.40;;;3.33;;
62419;SDS011;48460;51.616;5.426;2022-08-03T07:54:46;12.55;;;3.15;;
62419;SDS011;48460;51.616;5.426;2022-08-03T07:57:12;20.10;;;3.83;;
62419;SDS011;48460;51.616;5.426;2022-08-03T07:59:40;16.90;;;4.05;;
62419;SDS011;48460;51.616;5.426;2022-08-03T08:02:09;18.35;;;3.50;;
62419;SDS011;48460;51.616;5.426;2022-08-03T08:04:37;15.98;;;3.55;;
62419;SDS011;48460;51.616;5.426;2022-08-03T08:07:05;20.38;;;4.03;;
62419;SDS011;48460;51.616;5.426;2022-08-03T08:09:33;17.85;;;3.53;;
62419;SDS011;48460;51.616;5.426;2022-08-03T08:12:03;20.75;;;3.60;;
62419;SDS011;48460;51.616;5.426;2022-08-03T08:14:48;19.92;;;3.75;;
62419;SDS011;48460;51.616;5.426;2022-08-03T08:17:13;19.17;;;3.75;;
62419;SDS011;48460;51.616;5.426;2022-08-03T08:19:46;21.17;;;3.78;;
62419;SDS011;48460;51.616;5.426;2022-08-03T08:22:14;17.55;;;3.60;;
62419;SDS011;48460;51.616;5.426;2022-08-03T08:24:39;18.20;;;3.80;;
62419;SDS011;48460;51.616;5.426;2022-08-03T08:27:11;14.48;;;3.45;;
62419;SDS011;48460;51.616;5.426;2022-08-03T08:29:37;17.92;;;3.70;;
62419;SDS011;48460;51.616;5.426;2022-08-03T08:32:03;20.27;;;3.92;;
62419;SDS011;48460;51.616;5.426;2022-08-03T08:34:28;15.65;;;3.75;;
62419;SDS011;48460;51.616;5.426;2022-08-03T08:36:56;15.95;;;3.55;;
62419;SDS011;48460;51.616;5.426;2022-08-03T08:39:22;19.13;;;3.85;;
62419;SDS011;48460;51.616;5.426;2022-08-03T08:41:51;20.67;;;3.70;;
62419;SDS011;48460;51.616;5.426;2022-08-03T08:44:16;16.98;;;3.90;;
62419;SDS011;48460;51.616;5.426;2022-08-03T08:46:42;18.23;;;4.13;;
62419;SDS011;48460;51.616;5.426;2022-08-03T08:49:11;21.20;;;4.00;;
62419;SDS011;48460;51.616;5.426;2022-08-03T08:51:49;25.20;;;3.80;;
62419;SDS011;48460;51.616;5.426;2022-08-03T08:54:17;20.83;;;3.88;;
62419;SDS011;48460;51.616;5.426;2022-08-03T08:56:47;19.07;;;3.50;;
62419;SDS011;48460;51.616;5.426;2022-08-03T08:59:18;29.13;;;4.20;;
62419;SDS011;48460;51.616;5.426;2022-08-03T09:01:44;27.73;;;4.10;;
62419;SDS011;48460;51.616;5.426;2022-08-03T09:04:10;18.73;;;3.60;;
62419;SDS011;48460;51.616;5.426;2022-08-03T09:06:38;26.20;;;4.38;;
62419;SDS011;48460;51.616;5.426;2022-08-03T09:09:06;18.23;;;3.65;;
62419;SDS011;48460;51.616;5.426;2022-08-03T09:11:40;24.13;;;4.00;;
62419;SDS011;48460;51.616;5.426;2022-08-03T09:14:08;21.65;;;3.65;;
62419;SDS011;48460;51.616;5.426;2022-08-03T09:16:36;22.23;;;3.90;;
62419;SDS011;48460;51.616;5.426;2022-08-03T09:19:37;21.83;;;3.70;;
62419;SDS011;48460;51.616;5.426;2022-08-03T09:22:17;23.08;;;3.88;;
62419;SDS011;48460;51.616;5.426;2022-08-03T09:27:43;19.73;;;3.85;;
62419;SDS011;48460;51.616;5.426;2022-08-03T09:30:16;19.27;;;3.80;;
62419;SDS011;48460;51.616;5.426;2022-08-03T09:32:52;21.80;;;4.05;;
62419;SDS011;48460;51.616;5.426;2022-08-03T09:35:26;20.20;;;3.90;;
62419;SDS011;48460;51.616;5.426;2022-08-03T09:40:41;22.20;;;3.88;;
62419;SDS011;48460;51.616;5.426;2022-08-03T09:43:08;21.92;;;3.88;;
62419;SDS011;48460;51.616;5.426;2022-08-03T09:45:37;18.40;;;3.67;;
62419;SDS011;48460;51.616;5.426;2022-08-03T09:48:21;23.63;;;4.10;;
62419;SDS011;48460;51.616;5.426;2022-08-03T09:50:53;23.42;;;4.35;;
62419;SDS011;48460;51.616;5.426;2022-08-03T09:53:20;28.42;;;4.50;;
62419;SDS011;48460;51.616;5.426;2022-08-03T09:55:56;20.70;;;4.00;;
62419;SDS011;48460;51.616;5.426;2022-08-03T09:58:27;20.80;;;4.22;;
62419;SDS011;48460;51.616;5.426;2022-08-03T10:03:28;20.27;;;3.97;;
62419;SDS011;48460;51.616;5.426;2022-08-03T10:05:57;19.35;;;3.92;;
62419;SDS011;48460;51.616;5.426;2022-08-03T10:08:23;23.83;;;4.03;;
62419;SDS011;48460;51.616;5.426;2022-08-03T10:10:56;20.13;;;3.88;;
62419;SDS011;48460;51.616;5.426;2022-08-03T10:13:27;18.73;;;3.85;;
62419;SDS011;48460;51.616;5.426;2022-08-03T10:15:55;17.50;;;4.20;;
62419;SDS011;48460;51.616;5.426;2022-08-03T10:18:23;29.80;;;4.28;;
62419;SDS011;48460;51.616;5.426;2022-08-03T10:20:56;18.60;;;4.20;;
62419;SDS011;48460;51.616;5.426;2022-08-03T10:23:27;25.73;;;4.43;;
62419;SDS011;48460;51.616;5.426;2022-08-03T10:26:00;18.63;;;4.00;;
62419;SDS011;48460;51.616;5.426;2022-08-03T10:28:34;19.63;;;4.45;;
62419;SDS011;48460;51.616;5.426;2022-08-03T10:31:02;22.33;;;4.15;;
62419;SDS011;48460;51.616;5.426;2022-08-03T10:36:21;26.80;;;4.20;;
62419;SDS011;48460;51.616;5.426;2022-08-03T10:38:49;18.88;;;3.90;;
62419;SDS011;48460;51.616;5.426;2022-08-03T10:41:19;20.88;;;4.13;;
62419;SDS011;48460;51.616;5.426;2022-08-03T10:43:48;30.40;;;4.43;;
62419;SDS011;48460;51.616;5.426;2022-08-03T10:46:18;27.67;;;4.15;;
62419;SDS011;48460;51.616;5.426;2022-08-03T10:48:45;25.73;;;4.30;;
62419;SDS011;48460;51.616;5.426;2022-08-03T10:51:13;28.55;;;4.30;;
62419;SDS011;48460;51.616;5.426;2022-08-03T10:53:40;25.00;;;4.55;;
62419;SDS011;48460;51.616;5.426;2022-08-03T11:02:23;22.88;;;4.50;;
62419;SDS011;48460;51.616;5.426;2022-08-03T11:05:28;20.55;;;4.22;;
62419;SDS011;48460;51.616;5.426;2022-08-03T11:10:42;21.35;;;4.28;;
62419;SDS011;48460;51.616;5.426;2022-08-03T11:13:08;23.17;;;4.20;;
62419;SDS011;48460;51.616;5.426;2022-08-03T11:15:37;18.63;;;3.80;;
62419;SDS011;48460;51.616;5.426;2022-08-03T11:18:07;18.67;;;4.45;;
62419;SDS011;48460;51.616;5.426;2022-08-03T11:23:39;21.95;;;4.13;;
62419;SDS011;48460;51.616;5.426;2022-08-03T11:26:10;16.25;;;3.90;;
62419;SDS011;48460;51.616;5.426;2022-08-03T11:28:37;19.23;;;3.88;;
62419;SDS011;48460;51.616;5.426;2022-08-03T11:34:05;15.43;;;4.10;;
62419;SDS011;48460;51.616;5.426;2022-08-03T11:37:16;19.42;;;3.45;;
62419;SDS011;48460;51.616;5.426;2022-08-03T11:39:39;16.13;;;3.70;;
62419;SDS011;48460;51.616;5.426;2022-08-03T11:44:52;13.70;;;4.07;;
62419;SDS011;48460;51.616;5.426;2022-08-03T11:47:22;13.55;;;3.40;;
62419;SDS011;48460;51.616;5.426;2022-08-03T11:49:53;17.92;;;3.67;;
62419;SDS011;48460;51.616;5.426;2022-08-03T11:52:19;21.95;;;3.88;;
62419;SDS011;48460;51.616;5.426;2022-08-03T11:54:49;20.67;;;3.63;;
62419;SDS011;48460;51.616;5.426;2022-08-03T11:57:27;18.27;;;3.67;;
62419;SDS011;48460;51.616;5.426;2022-08-03T11:59:56;12.90;;;3.50;;
62419;SDS011;48460;51.616;5.426;2022-08-03T12:02:22;16.48;;;3.88;;
62419;SDS011;48460;51.616;5.426;2022-08-03T12:04:50;17.40;;;3.53;;
62419;SDS011;48460;51.616;5.426;2022-08-03T12:07:24;14.52;;;4.00;;
62419;SDS011;48460;51.616;5.426;2022-08-03T12:10:10;15.75;;;3.47;;
62419;SDS011;48460;51.616;5.426;2022-08-03T12:12:38;16.80;;;4.07;;
62419;SDS011;48460;51.616;5.426;2022-08-03T12:15:05;13.60;;;3.55;;
62419;SDS011;48460;51.616;5.426;2022-08-03T12:17:35;13.00;;;3.42;;
62419;SDS011;48460;51.616;5.426;2022-08-03T12:20:02;20.55;;;3.75;;
62419;SDS011;48460;51.616;5.426;2022-08-03T12:22:34;15.70;;;3.67;;
62419;SDS011;48460;51.616;5.426;2022-08-03T12:25:01;17.00;;;3.95;;
62419;SDS011;48460;51.616;5.426;2022-08-03T12:27:27;15.63;;;3.72;;
62419;SDS011;48460;51.616;5.426;2022-08-03T12:29:54;15.82;;;3.85;;
62419;SDS011;48460;51.616;5.426;2022-08-03T12:32:21;16.40;;;3.75;;
62419;SDS011;48460;51.616;5.426;2022-08-03T12:34:47;12.88;;;3.63;;
62419;SDS011;48460;51.616;5.426;2022-08-03T12:37:13;15.75;;;4.03;;
62419;SDS011;48460;51.616;5.426;2022-08-03T12:39:42;17.15;;;3.58;;
62419;SDS011;48460;51.616;5.426;2022-08-03T12:42:15;12.93;;;3.50;;
62419;SDS011;48460;51.616;5.426;2022-08-03T12:44:44;13.45;;;3.58;;
62419;SDS011;48460;51.616;5.426;2022-08-03T12:49:46;16.35;;;3.42;;
62419;SDS011;48460;51.616;5.426;2022-08-03T12:52:13;16.08;;;3.65;;
62419;SDS011;48460;51.616;5.426;2022-08-03T12:54:40;12.95;;;3.38;;
62419;SDS011;48460;51.616;5.426;2022-08-03T12:57:07;16.95;;;3.65;;
62419;SDS011;48460;51.616;5.426;2022-08-03T12:59:54;10.50;;;3.33;;
62419;SDS011;48460;51.616;5.426;2022-08-03T13:02:21;10.55;;;3.30;;
62419;SDS011;48460;51.616;5.426;2022-08-03T13:04:48;14.55;;;3.75;;
62419;SDS011;48460;51.616;5.426;2022-08-03T13:07:18;11.48;;;3.42;;
62419;SDS011;48460;51.616;5.426;2022-08-03T13:09:45;15.60;;;3.58;;
62419;SDS011;48460;51.616;5.426;2022-08-03T13:12:16;16.10;;;3.50;;
62419;SDS011;48460;51.616;5.426;2022-08-03T13:14:46;10.75;;;3.53;;
62419;SDS011;48460;51.616;5.426;2022-08-03T13:17:13;11.75;;;3.55;;
62419;SDS011;48460;51.616;5.426;2022-08-03T13:19:43;15.13;;;3.30;;
62419;SDS011;48460;51.616;5.426;2022-08-03T13:22:10;10.38;;;3.45;;
62419;SDS011;48460;51.616;5.426;2022-08-03T13:24:47;10.60;;;3.45;;
62419;SDS011;48460;51.616;5.426;2022-08-03T13:27:14;9.45;;;3.13;;
62419;SDS011;48460;51.616;5.426;2022-08-03T13:29:43;13.65;;;3.20;;
62419;SDS011;48460;51.616;5.426;2022-08-03T13:32:09;10.80;;;3.20;;
62419;SDS011;48460;51.616;5.426;2022-08-03T13:34:35;12.52;;;3.72;;
62419;SDS011;48460;51.616;5.426;2022-08-03T13:37:01;13.05;;;3.25;;
62419;SDS011;48460;51.616;5.426;2022-08-03T13:39:27;8.63;;;3.38;;
62419;SDS011;48460;51.616;5.426;2022-08-03T13:41:52;9.30;;;3.10;;
62419;SDS011;48460;51.616;5.426;2022-08-03T13:44:18;10.10;;;2.90;;
62419;SDS011;48460;51.616;5.426;2022-08-03T13:46:44;10.05;;;2.88;;
62419;SDS011;48460;51.616;5.426;2022-08-03T13:49:10;13.20;;;2.95;;
62419;SDS011;48460;51.616;5.426;2022-08-03T13:51:36;10.30;;;3.10;;
62419;SDS011;48460;51.616;5.426;2022-08-03T13:54:01;12.63;;;3.38;;
62419;SDS011;48460;51.616;5.426;2022-08-03T13:56:27;16.33;;;3.50;;
62419;SDS011;48460;51.616;5.426;2022-08-03T13:58:54;10.18;;;3.53;;
62419;SDS011;48460;51.616;5.426;2022-08-03T14:01:19;12.45;;;3.47;;
62419;SDS011;48460;51.616;5.426;2022-08-03T14:03:45;9.60;;;3.22;;
62419;SDS011;48460;51.616;5.426;2022-08-03T14:06:13;15.55;;;3.55;;
62419;SDS011;48460;51.616;5.426;2022-08-03T14:08:38;16.02;;;3.50;;
62419;SDS011;48460;51.616;5.426;2022-08-03T14:11:04;11.77;;;3.13;;
62419;SDS011;48460;51.616;5.426;2022-08-03T14:13:30;12.88;;;3.40;;
62419;SDS011;48460;51.616;5.426;2022-08-03T14:15:58;12.30;;;3.28;;
62419;SDS011;48460;51.616;5.426;2022-08-03T14:18:23;9.40;;;3.13;;
62419;SDS011;48460;51.616;5.426;2022-08-03T14:20:49;11.65;;;3.05;;
62419;SDS011;48460;51.616;5.426;2022-08-03T14:23:17;10.75;;;3.25;;
62419;SDS011;48460;51.616;5.426;2022-08-03T14:25:43;11.13;;;3.25;;
62419;SDS011;48460;51.616;5.426;2022-08-03T14:28:08;11.55;;;3.00;;
62419;SDS011;48460;51.616;5.426;2022-08-03T14:30:34;12.77;;;3.17;;
62419;SDS011;48460;51.616;5.426;2022-08-03T14:32:59;9.80;;;2.88;;
62419;SDS011;48460;51.616;5.426;2022-08-03T14:35:25;10.77;;;3.28;;
62419;SDS011;48460;51.616;5.426;2022-08-03T14:37:50;10.77;;;3.17;;
62419;SDS011;48460;51.616;5.426;2022-08-03T14:40:16;8.48;;;3.10;;
62419;SDS011;48460;51.616;5.426;2022-08-03T14:42:42;13.55;;;3.25;;
62419;SDS011;48460;51.616;5.426;2022-08-03T14:45:08;12.63;;;3.15;;
62419;SDS011;48460;51.616;5.426;2022-08-03T14:47:34;9.23;;;3.40;;
62419;SDS011;48460;51.616;5.426;2022-08-03T14:49:59;8.57;;;3.10;;
62419;SDS011;48460;51.616;5.426;2022-08-03T14:52:26;9.88;;;3.35;;
62419;SDS011;48460;51.616;5.426;2022-08-03T14:54:51;10.57;;;3.25;;
62419;SDS011;48460;51.616;5.426;2022-08-03T14:57:17;11.10;;;3.20;;
62419;SDS011;48460;51.616;5.426;2022-08-03T14:59:42;14.20;;;3.22;;
62419;SDS011;48460;51.616;5.426;2022-08-03T15:02:08;8.15;;;3.20;;
62419;SDS011;48460;51.616;5.426;2022-08-03T15:04:33;13.88;;;3.25;;
62419;SDS011;48460;51.616;5.426;2022-08-03T15:07:02;9.82;;;3.10;;
62419;SDS011;48460;51.616;5.426;2022-08-03T15:09:28;9.02;;;3.20;;
62419;SDS011;48460;51.616;5.426;2022-08-03T15:11:53;7.68;;;2.90;;
62419;SDS011;48460;51.616;5.426;2022-08-03T15:14:18;11.07;;;3.22;;
62419;SDS011;48460;51.616;5.426;2022-08-03T15:16:46;8.90;;;3.20;;
62419;SDS011;48460;51.616;5.426;2022-08-03T15:19:11;11.43;;;3.28;;
62419;SDS011;48460;51.616;5.426;2022-08-03T15:21:37;7.32;;;3.10;;
62419;SDS011;48460;51.616;5.426;2022-08-03T15:24:03;14.73;;;3.30;;
62419;SDS011;48460;51.616;5.426;2022-08-03T15:26:29;13.60;;;3.50;;
62419;SDS011;48460;51.616;5.426;2022-08-03T15:28:54;9.60;;;3.20;;
62419;SDS011;48460;51.616;5.426;2022-08-03T15:31:20;12.40;;;3.40;;
62419;SDS011;48460;51.616;5.426;2022-08-03T15:33:46;7.72;;;3.03;;
62419;SDS011;48460;51.616;5.426;2022-08-03T15:36:12;11.95;;;3.20;;
62419;SDS011;48460;51.616;5.426;2022-08-03T15:38:37;10.40;;;3.00;;
62419;SDS011;48460;51.616;5.426;2022-08-03T15:41:03;11.25;;;3.08;;